createdAt,value
2022-11-30T00:01:34.750Z,32.20
2022-11-30T00:04:02.834Z,35.10
2022-11-30T00:06:30.537Z,28.30
2022-11-30T00:08:59.843Z,30.10
2022-11-30T00:11:29.877Z,35.43
2022-11-30T00:14:00.524Z,29.80
2022-11-30T00:16:28.270Z,27.40
2022-11-30T00:18:56.001Z,29.20
2022-11-30T00:21:25.928Z,26.63
2022-11-30T00:23:53.622Z,38.00
2022-11-30T00:26:23.659Z,25.97
2022-11-30T00:28:53.453Z,30.93
2022-11-30T00:31:21.982Z,32.50
2022-11-30T00:33:52.232Z,35.23
2022-11-30T00:36:23.026Z,26.33
2022-11-30T00:38:52.316Z,31.20
2022-11-30T00:41:21.576Z,32.83
2022-11-30T00:43:49.481Z,35.30
2022-11-30T00:46:18.945Z,34.70
2022-11-30T00:48:48.035Z,41.20
2022-11-30T00:51:16.905Z,37.40
2022-11-30T00:53:44.691Z,28.60
2022-11-30T00:56:12.414Z,31.80
2022-11-30T00:58:41.192Z,27.33
2022-11-30T01:01:09.811Z,30.83
2022-11-30T01:03:39.722Z,32.60
2022-11-30T01:06:09.427Z,34.77
2022-11-30T01:08:37.599Z,30.63
2022-11-30T01:11:08.525Z,33.23
2022-11-30T01:13:37.044Z,29.93
2022-11-30T01:16:10.984Z,26.00
2022-11-30T01:18:41.140Z,28.77
2022-11-30T01:21:09.814Z,31.40
2022-11-30T01:23:38.191Z,27.73
2022-11-30T01:26:06.477Z,28.57
2022-11-30T01:28:34.378Z,29.07
2022-11-30T01:31:05.474Z,31.40
2022-11-30T01:33:33.643Z,28.53
2022-11-30T01:36:06.444Z,28.40
2022-11-30T01:38:35.986Z,33.23
2022-11-30T01:41:06.100Z,30.40
2022-11-30T01:43:43.312Z,32.03
2022-11-30T01:46:25.990Z,27.80
2022-11-30T01:49:00.585Z,31.77
2022-11-30T01:51:35.683Z,26.90
2022-11-30T01:54:07.409Z,32.30
2022-11-30T01:56:37.283Z,31.33
2022-11-30T01:59:05.977Z,30.90
2022-11-30T02:01:34.043Z,30.40
2022-11-30T02:04:09.633Z,32.70
2022-11-30T02:06:38.665Z,31.83
2022-11-30T02:09:06.310Z,24.70
2022-11-30T02:11:35.308Z,28.53
2022-11-30T02:14:15.925Z,24.83
2022-11-30T02:16:55.394Z,27.00
2022-11-30T02:19:49.463Z,31.50
2022-11-30T02:22:31.105Z,25.13
2022-11-30T02:25:09.964Z,25.00
2022-11-30T02:27:58.396Z,26.67
2022-11-30T02:30:28.228Z,30.87
2022-11-30T02:33:01.447Z,39.37
2022-11-30T02:35:32.167Z,27.57
2022-11-30T02:38:02.583Z,32.43
2022-11-30T02:40:30.837Z,25.93
2022-11-30T02:43:01.591Z,27.70
2022-11-30T02:45:35.543Z,23.50
2022-11-30T02:48:09.585Z,23.20
2022-11-30T02:50:42.076Z,24.40
2022-11-30T02:53:11.686Z,28.70
2022-11-30T02:55:39.365Z,24.53
2022-11-30T02:58:08.257Z,21.80
2022-11-30T03:00:37.913Z,25.07
2022-11-30T03:03:06.377Z,22.87
2022-11-30T03:05:34.172Z,23.53
2022-11-30T03:08:02.075Z,23.30
2022-11-30T03:10:29.950Z,25.57
2022-11-30T03:12:59.364Z,26.70
2022-11-30T03:15:27.581Z,27.63
2022-11-30T03:17:56.844Z,16.87
2022-11-30T03:20:25.014Z,22.77
2022-11-30T03:22:52.801Z,26.50
2022-11-30T03:25:20.476Z,23.57
2022-11-30T03:27:48.623Z,24.43
2022-11-30T03:30:16.678Z,24.00
2022-11-30T03:32:44.734Z,29.27
2022-11-30T03:35:13.805Z,28.13
2022-11-30T03:37:42.011Z,26.10
2022-11-30T03:40:11.374Z,24.80
2022-11-30T03:42:39.430Z,22.00
2022-11-30T03:45:08.185Z,23.47
2022-11-30T03:47:36.780Z,23.47
2022-11-30T03:50:05.430Z,22.20
2022-11-30T03:52:34.550Z,17.73
2022-11-30T03:55:02.275Z,19.53
2022-11-30T03:57:30.537Z,18.57
2022-11-30T03:59:58.882Z,14.60
2022-11-30T04:02:27.245Z,20.20
2022-11-30T04:04:55.293Z,18.80
2022-11-30T04:07:23.155Z,24.43
2022-11-30T04:09:52.315Z,19.03
2022-11-30T04:12:21.085Z,17.30
2022-11-30T04:14:49.021Z,16.67
2022-11-30T04:17:17.572Z,17.50
2022-11-30T04:19:45.334Z,12.37
2022-11-30T04:22:13.580Z,17.63
2022-11-30T04:24:41.721Z,17.53
2022-11-30T04:27:10.979Z,18.63
2022-11-30T04:29:38.695Z,17.17
2022-11-30T04:32:07.118Z,18.10
2022-11-30T04:34:34.917Z,15.10
2022-11-30T04:37:03.570Z,12.43
2022-11-30T04:39:35.869Z,17.43
2022-11-30T04:42:04.568Z,17.53
2022-11-30T04:44:33.925Z,19.73
2022-11-30T04:47:03.601Z,16.80
2022-11-30T04:49:31.847Z,15.53
2022-11-30T04:52:00.597Z,17.03
2022-11-30T04:54:29.377Z,16.87
2022-11-30T04:56:57.207Z,15.30
2022-11-30T04:59:25.011Z,19.67
2022-11-30T05:01:54.428Z,15.40
2022-11-30T05:04:22.678Z,18.33
2022-11-30T05:06:50.884Z,14.53
2022-11-30T05:09:20.014Z,19.17
2022-11-30T05:11:50.096Z,14.17
2022-11-30T05:14:18.778Z,14.53
2022-11-30T05:16:48.901Z,11.80
2022-11-30T05:19:17.959Z,15.07
2022-11-30T05:21:46.309Z,13.93
2022-11-30T05:24:14.335Z,15.23
2022-11-30T05:26:42.860Z,16.13
2022-11-30T05:29:11.076Z,13.73
2022-11-30T05:31:39.763Z,12.97
2022-11-30T05:34:08.360Z,14.57
2022-11-30T05:36:37.971Z,12.30
2022-11-30T05:39:07.147Z,11.70
2022-11-30T05:41:35.298Z,14.07
2022-11-30T05:44:03.287Z,16.30
2022-11-30T05:46:31.454Z,16.40
2022-11-30T05:48:59.506Z,21.23
2022-11-30T05:51:27.754Z,16.27
2022-11-30T05:53:57.517Z,17.83
2022-11-30T05:56:25.366Z,18.20
2022-11-30T05:58:54.164Z,21.20
2022-11-30T06:01:24.805Z,19.23
2022-11-30T06:03:53.991Z,19.97
2022-11-30T06:06:22.306Z,22.07
2022-11-30T06:08:51.480Z,20.93
2022-11-30T06:11:20.938Z,21.00
2022-11-30T06:13:49.084Z,22.80
2022-11-30T06:16:17.116Z,21.90
2022-11-30T06:18:45.257Z,24.07
2022-11-30T06:21:13.418Z,21.30
2022-11-30T06:23:41.181Z,23.70
2022-11-30T06:26:12.655Z,26.83
2022-11-30T06:28:47.648Z,23.20
2022-11-30T06:31:16.942Z,22.77
2022-11-30T06:33:44.977Z,23.03
2022-11-30T06:36:13.209Z,23.57
2022-11-30T06:38:41.291Z,23.90
2022-11-30T06:41:12.771Z,22.27
2022-11-30T06:43:42.318Z,21.70
2022-11-30T06:46:11.524Z,24.47
2022-11-30T06:48:39.760Z,23.80
2022-11-30T06:51:11.469Z,26.20
2022-11-30T06:53:39.311Z,23.50
2022-11-30T06:56:10.646Z,22.60
2022-11-30T06:58:39.702Z,18.80
2022-11-30T07:01:10.929Z,20.53
2022-11-30T07:03:40.802Z,24.30
2022-11-30T07:06:09.682Z,25.80
2022-11-30T07:08:37.659Z,21.87
2022-11-30T07:11:06.176Z,23.40
2022-11-30T07:13:34.347Z,24.40
2022-11-30T07:16:04.435Z,25.17
2022-11-30T07:18:34.126Z,26.90
2022-11-30T07:21:04.802Z,22.23
2022-11-30T07:23:55.825Z,28.87
2022-11-30T07:26:24.919Z,26.73
2022-11-30T07:28:58.780Z,29.47
2022-11-30T07:31:29.354Z,26.97
2022-11-30T07:34:00.990Z,28.00
2022-11-30T07:36:30.707Z,26.57
2022-11-30T07:38:58.488Z,26.63
2022-11-30T07:41:27.300Z,22.90
2022-11-30T07:43:54.924Z,27.13
2022-11-30T07:46:23.672Z,24.80
2022-11-30T07:48:51.895Z,25.93
2022-11-30T07:51:23.126Z,27.30
2022-11-30T07:53:51.874Z,25.33
2022-11-30T07:56:22.102Z,29.20
2022-11-30T07:58:51.958Z,26.27
2022-11-30T08:01:23.010Z,24.47
2022-11-30T08:03:51.392Z,23.43
2022-11-30T08:06:23.167Z,23.20
2022-11-30T08:08:53.066Z,23.00
2022-11-30T08:11:23.301Z,25.63
2022-11-30T08:13:51.633Z,26.63
2022-11-30T08:16:21.177Z,24.60
2022-11-30T08:18:50.129Z,30.70
2022-11-30T08:21:20.197Z,27.90
2022-11-30T08:23:51.072Z,25.30
2022-11-30T08:26:20.289Z,22.30
2022-11-30T08:28:50.915Z,26.90
2022-11-30T08:31:21.259Z,24.93
2022-11-30T08:33:50.625Z,24.27
2022-11-30T08:36:20.686Z,24.27
2022-11-30T08:38:50.596Z,24.70
2022-11-30T08:41:20.552Z,24.57
2022-11-30T08:43:49.554Z,26.93
2022-11-30T08:54:50.379Z,29.00
2022-11-30T08:57:20.766Z,28.43
2022-11-30T08:59:49.337Z,25.33
2022-11-30T09:02:19.856Z,24.93
2022-11-30T09:04:51.026Z,24.20
2022-11-30T09:07:19.681Z,22.87
2022-11-30T09:09:49.241Z,20.83
2022-11-30T09:12:17.485Z,20.17
2022-11-30T09:14:49.649Z,25.10
2022-11-30T09:17:20.615Z,21.20
2022-11-30T09:19:48.223Z,22.40
2022-11-30T09:22:16.297Z,22.83
2022-11-30T09:24:44.645Z,25.53
2022-11-30T09:27:14.544Z,21.73
2022-11-30T09:29:43.276Z,24.80
2022-11-30T09:32:10.956Z,19.97
2022-11-30T09:34:39.438Z,20.20
2022-11-30T09:37:07.557Z,20.90
2022-11-30T09:39:35.705Z,19.13
2022-11-30T09:42:20.719Z,19.20
2022-11-30T09:44:59.710Z,17.97
2022-11-30T09:47:50.136Z,22.20
2022-11-30T09:50:23.354Z,15.60
2022-11-30T09:52:54.397Z,17.87
2022-11-30T09:55:27.896Z,19.50
2022-11-30T09:57:59.688Z,16.40
2022-11-30T10:00:28.059Z,17.07
2022-11-30T10:02:58.714Z,16.10
2022-11-30T10:05:35.740Z,14.77
2022-11-30T10:08:27.098Z,14.80
2022-11-30T10:11:10.592Z,15.73
2022-11-30T10:13:53.318Z,16.27
2022-11-30T10:16:32.572Z,17.03
2022-11-30T10:19:10.401Z,14.97
2022-11-30T10:21:52.362Z,16.17
2022-11-30T10:24:32.865Z,13.70
2022-11-30T10:27:13.504Z,15.10
2022-11-30T10:29:44.110Z,13.67
2022-11-30T10:32:18.091Z,13.27
2022-11-30T10:34:51.546Z,10.10
2022-11-30T10:37:23.854Z,13.27
2022-11-30T10:40:00.910Z,13.60
2022-11-30T10:42:32.379Z,13.90
2022-11-30T10:45:05.489Z,14.10
2022-11-30T10:47:37.581Z,13.83
2022-11-30T10:50:07.108Z,10.60
2022-11-30T10:52:43.502Z,10.30
2022-11-30T10:55:15.968Z,14.43
2022-11-30T10:57:45.518Z,14.47
2022-11-30T11:00:17.516Z,14.47
2022-11-30T11:02:48.202Z,13.97
2022-11-30T11:05:20.659Z,14.23
2022-11-30T11:08:04.347Z,15.53
2022-11-30T11:10:37.173Z,11.63
2022-11-30T11:13:06.335Z,10.87
2022-11-30T11:15:37.732Z,9.30
2022-11-30T11:18:24.189Z,10.70
2022-11-30T11:21:06.148Z,9.83
2022-11-30T11:23:37.628Z,9.93
2022-11-30T11:26:06.549Z,9.83
2022-11-30T11:28:36.882Z,10.67
2022-11-30T11:31:19.966Z,9.10
2022-11-30T11:33:52.538Z,8.80
2022-11-30T11:36:28.217Z,9.87
2022-11-30T11:38:56.392Z,9.70
2022-11-30T11:41:28.628Z,15.80
2022-11-30T11:44:01.268Z,9.80
2022-11-30T11:46:32.127Z,10.83
2022-11-30T11:49:02.482Z,13.17
2022-11-30T11:51:33.378Z,14.57
2022-11-30T11:54:08.072Z,15.83
2022-11-30T11:56:38.884Z,11.20
2022-11-30T11:59:16.302Z,9.30
2022-11-30T12:01:52.750Z,12.70
2022-11-30T12:04:40.253Z,15.30
2022-11-30T12:07:18.573Z,12.37
2022-11-30T12:09:56.554Z,12.43
2022-11-30T12:12:25.519Z,13.60
2022-11-30T12:14:54.009Z,16.70
2022-11-30T12:17:39.958Z,13.50
2022-11-30T12:20:20.045Z,13.73
2022-11-30T12:23:02.378Z,14.80
2022-11-30T12:25:33.263Z,15.77
2022-11-30T12:28:15.063Z,15.97
2022-11-30T12:30:51.441Z,14.00
2022-11-30T12:33:33.620Z,16.37
2022-11-30T12:36:11.438Z,16.03
2022-11-30T12:38:48.042Z,15.80
2022-11-30T12:41:33.499Z,15.50
2022-11-30T12:44:35.500Z,16.10
2022-11-30T12:47:21.620Z,14.73
2022-11-30T12:50:17.673Z,14.47
2022-11-30T12:52:54.585Z,17.33
2022-11-30T12:55:32.187Z,18.30
2022-11-30T12:58:10.427Z,21.83
2022-11-30T13:00:47.376Z,16.40
2022-11-30T13:03:45.762Z,15.70
2022-11-30T13:06:18.728Z,19.00
2022-11-30T13:08:57.034Z,18.40
2022-11-30T13:11:29.757Z,15.30
2022-11-30T13:14:00.550Z,18.00
2022-11-30T13:16:31.146Z,14.53
2022-11-30T13:19:12.213Z,19.87
2022-11-30T13:21:48.594Z,17.53
2022-11-30T13:24:25.082Z,16.47
2022-11-30T13:27:00.154Z,16.20
2022-11-30T13:30:06.368Z,16.20
2022-11-30T13:35:54.032Z,16.43
2022-11-30T13:38:39.003Z,16.57
2022-11-30T13:41:10.534Z,16.63
2022-11-30T13:43:43.913Z,17.70
2022-11-30T13:46:17.468Z,14.60
2022-11-30T13:48:45.871Z,16.53
2022-11-30T13:51:16.496Z,17.93
2022-11-30T13:53:45.577Z,18.93
2022-11-30T13:56:33.978Z,17.40
2022-11-30T13:59:34.605Z,14.53
2022-11-30T14:02:43.073Z,16.90
2022-11-30T14:05:26.063Z,16.20
2022-11-30T14:08:18.907Z,17.37
2022-11-30T14:10:49.273Z,17.00
2022-11-30T14:13:31.804Z,18.70
2022-11-30T14:16:01.848Z,17.40
2022-11-30T14:18:41.704Z,15.70
2022-11-30T14:21:26.701Z,19.67
2022-11-30T14:24:00.289Z,17.83
2022-11-30T14:26:38.287Z,13.97
2022-11-30T14:29:17.698Z,16.20
2022-11-30T14:31:53.992Z,19.60
2022-11-30T14:34:27.199Z,16.27
2022-11-30T14:36:58.046Z,17.50
2022-11-30T14:39:28.669Z,15.27
2022-11-30T14:41:57.874Z,16.77
2022-11-30T14:44:26.795Z,16.10
2022-11-30T14:46:55.175Z,16.30
2022-11-30T14:49:24.925Z,13.93
2022-11-30T14:51:55.268Z,15.27
2022-11-30T14:54:43.089Z,14.80
2022-11-30T14:57:23.178Z,19.03
2022-11-30T14:59:54.329Z,18.87
2022-11-30T15:02:27.511Z,14.77
2022-11-30T15:04:57.654Z,16.03
2022-11-30T15:07:26.934Z,12.83
2022-11-30T15:10:03.614Z,16.07
2022-11-30T15:12:34.206Z,13.03
2022-11-30T15:15:18.115Z,14.83
2022-11-30T15:17:52.705Z,13.83
2022-11-30T15:20:27.423Z,11.80
2022-11-30T15:22:56.441Z,11.20
2022-11-30T15:25:29.616Z,14.20
2022-11-30T15:27:59.783Z,14.77
2022-11-30T15:30:27.977Z,14.30
2022-11-30T15:32:58.798Z,13.60
2022-11-30T15:35:38.821Z,12.63
2022-11-30T15:39:05.480Z,13.90
2022-11-30T15:41:35.380Z,16.97
2022-11-30T15:44:04.783Z,17.20
2022-11-30T15:46:39.799Z,15.67
2022-11-30T15:49:22.105Z,15.13
2022-11-30T15:52:00.853Z,15.97
2022-11-30T15:54:46.072Z,15.83
2022-11-30T15:57:14.304Z,14.43
2022-11-30T15:59:44.040Z,12.53
2022-11-30T16:02:28.405Z,15.03
2022-11-30T16:05:25.761Z,10.60
2022-11-30T16:07:56.147Z,8.00
2022-11-30T16:10:26.797Z,8.10
2022-11-30T16:12:56.524Z,9.60
2022-11-30T16:15:28.503Z,6.10
2022-11-30T16:18:00.887Z,9.27
2022-11-30T16:20:29.036Z,7.70
2022-11-30T16:23:01.111Z,6.93
2022-11-30T16:25:32.687Z,7.00
2022-11-30T16:28:02.557Z,8.27
2022-11-30T16:30:32.434Z,5.37
2022-11-30T16:33:00.526Z,6.30
2022-11-30T16:35:36.677Z,6.77
2022-11-30T16:38:05.132Z,6.00
2022-11-30T16:40:38.526Z,10.23
2022-11-30T16:43:07.347Z,3.90
2022-11-30T16:45:38.776Z,4.80
2022-11-30T16:48:07.667Z,3.83
2022-11-30T16:50:36.567Z,3.73
2022-11-30T16:53:06.829Z,4.87
2022-11-30T16:55:41.289Z,3.63
2022-11-30T16:58:09.719Z,3.50
2022-11-30T17:00:41.184Z,5.73
2022-11-30T17:03:21.654Z,5.17
2022-11-30T17:05:49.760Z,3.87
2022-11-30T17:08:18.083Z,5.47
2022-11-30T17:10:47.167Z,5.63
2022-11-30T17:13:18.015Z,6.53
2022-11-30T17:15:47.563Z,6.83
2022-11-30T17:18:15.358Z,7.53
2022-11-30T17:20:45.369Z,9.47
2022-11-30T17:23:13.183Z,7.87
2022-11-30T17:25:40.976Z,7.90
2022-11-30T17:28:08.817Z,9.50
2022-11-30T17:30:37.369Z,8.47
2022-11-30T17:33:06.562Z,7.43
2022-11-30T17:35:34.888Z,7.50
2022-11-30T17:41:45.294Z,7.43
2022-11-30T17:44:16.489Z,7.77
2022-11-30T17:46:48.133Z,7.60
2022-11-30T17:49:17.997Z,9.03
2022-11-30T17:51:46.044Z,8.87
2022-11-30T17:54:17.571Z,9.37
2022-11-30T17:56:48.092Z,9.17
2022-11-30T17:59:18.765Z,9.93
2022-11-30T18:01:47.660Z,8.80
2022-11-30T18:04:35.987Z,9.20
2022-11-30T18:07:08.549Z,7.73
2022-11-30T18:09:42.390Z,9.23
2022-11-30T18:12:12.154Z,10.23
2022-11-30T18:14:39.974Z,10.20
2022-11-30T18:17:08.483Z,9.60
2022-11-30T18:19:38.168Z,10.10
2022-11-30T18:22:06.251Z,10.20
2022-11-30T18:24:34.567Z,13.63
2022-11-30T18:27:04.637Z,9.30
2022-11-30T18:29:45.363Z,10.97
2022-11-30T18:32:17.664Z,10.07
2022-11-30T18:34:53.482Z,8.30
2022-11-30T18:37:28.085Z,8.93
2022-11-30T18:40:12.641Z,13.60
2022-11-30T18:43:28.257Z,10.57
2022-11-30T18:56:44.427Z,7.40
2022-11-30T18:59:14.570Z,9.40
2022-11-30T19:02:12.050Z,11.23
2022-11-30T19:04:48.792Z,8.10
2022-11-30T19:07:42.669Z,7.90
2022-11-30T19:10:44.080Z,11.07
2022-11-30T19:14:42.489Z,11.30
2022-11-30T19:17:12.233Z,12.60
2022-11-30T19:19:44.060Z,8.43
2022-11-30T19:24:10.083Z,12.53
2022-11-30T19:45:06.947Z,10.77
2022-11-30T19:48:14.881Z,10.30
2022-11-30T19:51:17.797Z,12.77
2022-11-30T19:54:35.908Z,12.13
2022-11-30T19:58:24.401Z,13.00
2022-11-30T20:00:55.955Z,13.83
2022-11-30T20:03:25.903Z,10.60
2022-11-30T20:06:12.702Z,10.20
2022-11-30T20:08:43.882Z,11.63
2022-11-30T20:11:13.742Z,10.90
2022-11-30T20:13:44.212Z,13.73
2022-11-30T20:16:13.972Z,12.03
2022-11-30T20:18:46.546Z,13.40
2022-11-30T20:21:16.995Z,14.33
2022-11-30T20:23:47.296Z,12.97
2022-11-30T20:26:18.648Z,13.20
2022-11-30T20:28:49.165Z,10.70
2022-11-30T20:31:20.751Z,13.33
2022-11-30T20:33:49.418Z,12.43
2022-11-30T20:36:19.042Z,11.53
2022-11-30T20:38:48.512Z,14.17
2022-11-30T20:41:19.430Z,14.77
2022-11-30T20:43:49.704Z,10.93
2022-11-30T20:46:21.336Z,12.10
2022-11-30T20:48:50.974Z,8.37
2022-11-30T20:51:36.587Z,12.93
2022-11-30T20:54:07.730Z,14.80
2022-11-30T20:56:37.360Z,9.60
2022-11-30T20:59:09.383Z,12.20
2022-11-30T21:01:38.013Z,11.33
2022-11-30T21:04:06.589Z,18.60
2022-11-30T21:06:35.340Z,9.90
2022-11-30T21:09:03.551Z,11.73
2022-11-30T21:11:32.542Z,11.43
2022-11-30T21:14:00.596Z,11.90
2022-11-30T21:16:31.326Z,11.60
2022-11-30T21:19:01.250Z,12.27
2022-11-30T21:21:31.293Z,15.67
2022-11-30T21:24:01.713Z,12.93
2022-11-30T21:26:32.016Z,15.67
2022-11-30T21:29:03.322Z,13.47
2022-11-30T21:31:34.487Z,11.80
2022-11-30T21:34:03.638Z,17.33
2022-11-30T21:36:32.363Z,15.80
2022-11-30T21:39:06.063Z,14.20
2022-11-30T21:41:34.963Z,13.37
2022-11-30T21:44:03.301Z,14.90
2022-11-30T21:46:34.466Z,18.77
2022-11-30T21:49:04.044Z,13.90
2022-11-30T21:51:33.003Z,18.40
2022-11-30T21:54:03.510Z,16.43
2022-11-30T21:56:33.646Z,18.00
2022-11-30T21:59:03.659Z,18.00
2022-11-30T22:01:36.156Z,17.30
2022-11-30T22:04:06.195Z,19.80
2022-11-30T22:06:36.689Z,18.40
2022-11-30T22:09:09.051Z,17.40
2022-11-30T22:11:39.133Z,14.07
2022-11-30T22:14:08.795Z,17.40
2022-11-30T22:16:37.929Z,19.10
2022-11-30T22:19:07.431Z,15.77
2022-11-30T22:21:40.805Z,16.00
2022-11-30T22:24:12.653Z,15.07
2022-11-30T22:26:42.419Z,16.73
2022-11-30T22:29:14.834Z,17.03
2022-11-30T22:31:47.005Z,19.63
2022-11-30T22:34:15.631Z,18.10
2022-11-30T22:36:46.125Z,16.10
2022-11-30T22:39:17.348Z,17.13
2022-11-30T22:41:52.840Z,21.10
2022-11-30T22:44:23.036Z,18.13
2022-11-30T22:46:52.317Z,18.43
2022-11-30T22:49:21.533Z,19.30
2022-11-30T22:51:51.111Z,18.40
2022-11-30T22:54:19.388Z,22.87
2022-11-30T22:56:47.533Z,19.30
2022-11-30T22:59:16.840Z,14.30
2022-11-30T23:01:46.115Z,17.70
2022-11-30T23:04:18.710Z,21.40
2022-11-30T23:06:48.476Z,22.97
2022-11-30T23:09:19.090Z,17.90
2022-11-30T23:11:47.351Z,17.07
2022-11-30T23:14:16.765Z,21.13
2022-11-30T23:16:46.339Z,20.80
2022-11-30T23:19:16.156Z,17.20
2022-11-30T23:21:46.332Z,22.57
2022-11-30T23:24:17.854Z,17.60
2022-11-30T23:26:46.086Z,18.70
2022-11-30T23:29:16.144Z,20.93
2022-11-30T23:31:45.457Z,21.17
2022-11-30T23:34:17.641Z,19.97
2022-11-30T23:36:45.820Z,20.10
2022-11-30T23:39:16.136Z,21.67
2022-11-30T23:41:44.553Z,19.70
2022-11-30T23:44:12.917Z,20.43
2022-11-30T23:46:41.618Z,18.87
2022-11-30T23:49:09.663Z,20.80
2022-11-30T23:51:38.839Z,24.53
2022-11-30T23:54:07.322Z,17.83
2022-11-30T23:56:35.074Z,24.60
2022-11-30T23:59:02.700Z,19.60
